createdAt,value
2023-01-11T00:02:35.000Z,102088.85
2023-01-11T00:12:35.000Z,102084.04
2023-01-11T00:17:34.000Z,102081.59
2023-01-11T00:22:35.000Z,102076.22
2023-01-11T00:27:34.000Z,102075.36
2023-01-11T00:32:35.000Z,102071.1
2023-01-11T00:37:34.000Z,102059.66
2023-01-11T00:42:35.000Z,102057.99
2023-01-11T00:47:34.000Z,102057.99
2023-01-11T00:52:35.000Z,102057.09
2023-01-11T00:57:35.000Z,102049.98
2023-01-11T01:02:34.000Z,102055.41
2023-01-11T01:07:35.000Z,102055.17
2023-01-11T01:12:35.000Z,102056.43
2023-01-11T01:17:35.000Z,102054.71
2023-01-11T01:22:35.000Z,102060.46
2023-01-11T01:27:34.000Z,102064.09
2023-01-11T01:32:35.000Z,102063.66
2023-01-11T01:37:34.000Z,102059.12
2023-01-11T01:42:35.000Z,102054.54
2023-01-11T01:47:34.000Z,102055.06
2023-01-11T01:52:35.000Z,102053.78
2023-01-11T01:57:34.000Z,102053.97
2023-01-11T02:02:35.000Z,102053.97
2023-01-11T02:07:35.000Z,102054.86
2023-01-11T02:12:34.000Z,102047.43
2023-01-11T02:17:35.000Z,102035.74
2023-01-11T02:22:34.000Z,102039.32
2023-01-11T02:27:34.000Z,102038.86
2023-01-11T02:32:35.000Z,102033.05
2023-01-11T02:47:35.000Z,102023.88
2023-01-11T02:52:35.000Z,102030.8
2023-01-11T02:57:35.000Z,102036.23
2023-01-11T03:02:34.000Z,102032.63
2023-01-11T03:07:35.000Z,102020.18
2023-01-11T03:12:35.000Z,102009.67
2023-01-11T03:17:35.000Z,102008.98
2023-01-11T03:22:35.000Z,102008.94
2023-01-11T03:27:34.000Z,102003.2
2023-01-11T03:32:35.000Z,101990.77
2023-01-11T03:37:35.000Z,101976.81
2023-01-11T03:42:35.000Z,101968.66
2023-01-11T03:47:35.000Z,101981.89
2023-01-11T03:52:35.000Z,101976.33
2023-01-11T03:57:35.000Z,101976.33
2023-01-11T04:02:34.000Z,101976.73
2023-01-11T04:07:34.000Z,101968.93
2023-01-11T04:12:35.000Z,101969.09
2023-01-11T04:17:34.000Z,101974.43
2023-01-11T04:22:35.000Z,101979.97
2023-01-11T04:27:34.000Z,101975.1
2023-01-11T04:32:35.000Z,101972.68
2023-01-11T04:37:35.000Z,101968.32
2023-01-11T04:42:34.000Z,101959.86
2023-01-11T04:47:35.000Z,101957.25
2023-01-11T04:52:34.000Z,101963.88
2023-01-11T04:57:35.000Z,101951.85
2023-01-11T05:02:34.000Z,101951.85
2023-01-11T05:07:35.000Z,101948.22
2023-01-11T05:12:34.000Z,101948.22
2023-01-11T05:17:35.000Z,101943.79
2023-01-11T05:22:35.000Z,101944.94
2023-01-11T05:27:34.000Z,101940.73
2023-01-11T05:32:35.000Z,101938.72
2023-01-11T05:37:35.000Z,101940.45
2023-01-11T05:42:35.000Z,101934.61
2023-01-11T05:47:34.000Z,101931.89
2023-01-11T05:52:35.000Z,101921.65
2023-01-11T05:57:34.000Z,101927.23
2023-01-11T06:02:35.000Z,101924.75
2023-01-11T06:12:35.000Z,101936.24
2023-01-11T06:17:34.000Z,101941.08
2023-01-11T06:22:35.000Z,101938.42
2023-01-11T06:27:34.000Z,101937.5
2023-01-11T06:32:35.000Z,101942.12
2023-01-11T06:37:35.000Z,101935.49
2023-01-11T06:42:35.000Z,101935.52
2023-01-11T06:47:35.000Z,101934.9
2023-01-11T06:52:35.000Z,101933.28
2023-01-11T06:57:34.000Z,101933.28
2023-01-11T07:02:35.000Z,101927.96
2023-01-11T07:07:34.000Z,101923.66
2023-01-11T07:12:35.000Z,101921.75
2023-01-11T07:17:34.000Z,101914.39
2023-01-11T07:22:35.000Z,101911.55
2023-01-11T07:27:34.000Z,101914.15
2023-01-11T07:32:35.000Z,101900.51
2023-01-11T07:42:34.000Z,101900.58
2023-01-11T07:57:35.000Z,101905.43
2023-01-11T08:02:35.000Z,101900.16
2023-01-11T08:07:34.000Z,101894.45
2023-01-11T08:12:35.000Z,101891.08
2023-01-11T08:17:35.000Z,101889.62
2023-01-11T08:22:35.000Z,101897.87
2023-01-11T08:27:35.000Z,101894.34
2023-01-11T08:32:34.000Z,101891.79
2023-01-11T08:37:35.000Z,101881.21
2023-01-11T08:42:34.000Z,101880.4
2023-01-11T08:47:35.000Z,101872.44
2023-01-11T08:52:34.000Z,101870.75
2023-01-11T08:57:35.000Z,101867.7
2023-01-11T09:02:34.000Z,101867.7
2023-01-11T09:07:35.000Z,101864.5
2023-01-11T09:12:35.000Z,101854.54
2023-01-11T09:17:35.000Z,101847.88
2023-01-11T09:22:34.000Z,101841.18
2023-01-11T09:27:35.000Z,101838.86
2023-01-11T09:32:34.000Z,101830.08
2023-01-11T09:37:35.000Z,101820.24
2023-01-11T09:42:35.000Z,101820.39
2023-01-11T09:47:35.000Z,101813.78
2023-01-11T09:52:35.000Z,101811.74
2023-01-11T09:57:35.000Z,101809.88
2023-01-11T10:02:35.000Z,101807.34
2023-01-11T10:07:34.000Z,101788.01
2023-01-11T10:14:07.000Z,101774.02
2023-01-11T10:27:35.000Z,101764.92
2023-01-11T10:32:34.000Z,101770.14
2023-01-11T10:37:35.000Z,101764.13
2023-01-11T10:42:34.000Z,101752.27
2023-01-11T10:47:35.000Z,101740.95
2023-01-11T10:52:34.000Z,101738.78
2023-01-11T10:57:36.000Z,101728.68
2023-01-11T11:02:36.000Z,101725.45
2023-01-11T11:07:35.000Z,101718.22
2023-01-11T11:12:35.000Z,101707.38
2023-01-11T11:17:35.000Z,101701.96
2023-01-11T11:22:35.000Z,101695.9
2023-01-11T11:27:34.000Z,101691.53
2023-01-11T11:32:34.000Z,101691.53
2023-01-11T11:37:35.000Z,101683.39
2023-01-11T11:47:34.000Z,101673.19
2023-01-11T11:52:35.000Z,101663.63
2023-01-11T11:57:36.000Z,101655.4
2023-01-11T12:02:35.000Z,101646.19
2023-01-11T12:12:39.000Z,101637.14
2023-01-11T12:17:34.000Z,101631.88
2023-01-11T12:22:35.000Z,101628.69
2023-01-11T12:27:34.000Z,101623.42
2023-01-11T12:32:34.000Z,101616.01
2023-01-11T12:37:34.000Z,101613
2023-01-11T12:42:35.000Z,101613.51
2023-01-11T12:47:34.000Z,101619.04
2023-01-11T12:57:35.000Z,101625.13
2023-01-11T13:02:35.000Z,101618.37
2023-01-11T13:07:34.000Z,101613.67
2023-01-11T13:12:35.000Z,101611.89
2023-01-11T13:17:34.000Z,101611.51
2023-01-11T13:22:34.000Z,101607.78
2023-01-11T13:27:35.000Z,101604.68
2023-01-11T13:32:34.000Z,101605.31
2023-01-11T13:37:34.000Z,101607.47
2023-01-11T13:42:35.000Z,101599.33
2023-01-11T13:47:34.000Z,101602.28
2023-01-11T13:52:35.000Z,101601.1
2023-01-11T13:57:34.000Z,101602.66
2023-01-11T14:02:34.000Z,101602.66
2023-01-11T14:07:35.000Z,101600.02
2023-01-11T14:12:35.000Z,101599.27
2023-01-11T14:17:34.000Z,101592.18
2023-01-11T14:22:35.000Z,101588.11
2023-01-11T14:27:36.000Z,101583.77
2023-01-11T14:32:36.000Z,101591.05
2023-01-11T14:37:36.000Z,101595
2023-01-11T14:42:44.000Z,101592.56
2023-01-11T14:47:35.000Z,101591.22
2023-01-11T14:52:50.000Z,101587.44
2023-01-11T14:57:36.000Z,101588.74
2023-01-11T15:02:36.000Z,101586.86
2023-01-11T15:07:35.000Z,101592.26
2023-01-11T15:12:36.000Z,101592.26
2023-01-11T15:17:35.000Z,101591.4
2023-01-11T15:22:44.000Z,101580.9
2023-01-11T15:27:38.000Z,101572.84
2023-01-11T15:32:36.000Z,101568.12
2023-01-11T15:37:38.000Z,101561.98
2023-01-11T15:42:34.000Z,101561.24
2023-01-11T15:47:35.000Z,101555.33
2023-01-11T15:52:34.000Z,101563.11
2023-01-11T15:57:35.000Z,101574.86
2023-01-11T16:02:34.000Z,101574.57
2023-01-11T16:07:35.000Z,101572.76
2023-01-11T16:12:34.000Z,101572.99
2023-01-11T16:17:34.000Z,101564.72
2023-01-11T16:22:35.000Z,101543.75
2023-01-11T16:27:34.000Z,101543.75
2023-01-11T16:32:35.000Z,101531.29
2023-01-11T16:37:35.000Z,101526.16
2023-01-11T16:42:34.000Z,101518.04
2023-01-11T16:47:35.000Z,101509.43
2023-01-11T16:52:34.000Z,101498.15
2023-01-11T16:57:35.000Z,101497.42
2023-01-11T17:02:35.000Z,101506.96
2023-01-11T17:07:34.000Z,101511.4
2023-01-11T17:12:34.000Z,101509.77
2023-01-11T17:17:35.000Z,101495.38
2023-01-11T17:22:35.000Z,101501.24
2023-01-11T17:27:34.000Z,101491.15
2023-01-11T17:32:35.000Z,101460.64
2023-01-11T17:37:35.000Z,101459.82
2023-01-11T17:42:35.000Z,101459.82
2023-01-11T17:47:35.000Z,101459.44
2023-01-11T17:52:34.000Z,101471.29
2023-01-11T17:57:35.000Z,101467.17
2023-01-11T18:02:34.000Z,101462.73
2023-01-11T18:07:35.000Z,101459.76
2023-01-11T18:17:35.000Z,101431.88
2023-01-11T18:22:34.000Z,101430.81
2023-01-11T18:27:35.000Z,101425.95
2023-01-11T18:32:35.000Z,101423.02
2023-01-11T18:37:34.000Z,101420.47
2023-01-11T18:42:35.000Z,101419.51
2023-01-11T18:47:35.000Z,101414.06
2023-01-11T18:52:35.000Z,101428.25
2023-01-11T18:57:35.000Z,101428.08
2023-01-11T19:02:34.000Z,101433.69
2023-01-11T19:07:35.000Z,101432.89
2023-01-11T19:12:35.000Z,101431.45
2023-01-11T19:17:35.000Z,101431.45
2023-01-11T19:22:37.000Z,101442.78
2023-01-11T19:27:35.000Z,101446.34
2023-01-11T19:32:35.000Z,101444.53
2023-01-11T19:37:34.000Z,101442.66
2023-01-11T19:42:35.000Z,101450.29
2023-01-11T19:47:35.000Z,101443.38
2023-01-11T19:52:34.000Z,101445.44
2023-01-11T19:57:35.000Z,101437.53
2023-01-11T20:02:35.000Z,101428.72
2023-01-11T20:07:35.000Z,101421.16
2023-01-11T20:12:34.000Z,101408.08
2023-01-11T20:17:35.000Z,101403.75
2023-01-11T20:22:34.000Z,101409.16
2023-01-11T20:27:35.000Z,101409.16
2023-01-11T20:32:51.000Z,101404.21
2023-01-11T20:37:34.000Z,101400.83
2023-01-11T20:42:34.000Z,101406.38
2023-01-11T20:47:34.000Z,101406.02
2023-01-11T20:52:35.000Z,101401.58
2023-01-11T20:57:35.000Z,101398.45
2023-01-11T21:02:35.000Z,101399.19
2023-01-11T21:07:35.000Z,101400.27
2023-01-11T21:12:34.000Z,101388.97
2023-01-11T21:17:35.000Z,101387.84
2023-01-11T21:22:35.000Z,101388.85
2023-01-11T21:27:35.000Z,101395.33
2023-01-11T21:32:35.000Z,101394.82
2023-01-11T21:37:34.000Z,101383.04
2023-01-11T21:42:35.000Z,101383.04
2023-01-11T21:47:34.000Z,101375.65
2023-01-11T21:52:35.000Z,101381.95
2023-01-11T21:57:34.000Z,101372.22
2023-01-11T22:02:35.000Z,101360.62
2023-01-11T22:07:35.000Z,101359.33
2023-01-11T22:12:35.000Z,101357.02
2023-01-11T22:17:34.000Z,101358.72
2023-01-11T22:22:34.000Z,101369.7
2023-01-11T22:27:34.000Z,101367.1
2023-01-11T22:32:35.000Z,101372.21
2023-01-11T22:37:34.000Z,101365.26
2023-01-11T22:42:35.000Z,101356.1
2023-01-11T22:47:34.000Z,101349.52
2023-01-11T22:52:35.000Z,101347.33
2023-01-11T22:57:34.000Z,101347.33
2023-01-11T23:02:35.000Z,101338.95
2023-01-11T23:17:35.000Z,101332.09
2023-01-11T23:22:34.000Z,101328.14
2023-01-11T23:27:34.000Z,101328.54
2023-01-11T23:32:35.000Z,101320.13
2023-01-11T23:37:35.000Z,101312.34
2023-01-11T23:42:34.000Z,101313.42
2023-01-11T23:52:35.000Z,101315.21
2023-01-11T23:57:35.000Z,101318.03
